Winburne, Pennsylvania
Current Conditions -  °F | °C
As of 7:54 PM on Sunday 21 Dec 2014 (Local Time) from KFIG Reporting Station
Clear Clear  
Wind Chill: 14°   Ceiling: Unl
Heat Index: 22°   Visibility: 8mi
Dew Point: 19°   Wind: 6mph
Humidity: 89%   Direction: 30°NNE
Pressure: 30.24"   Gusts: NA
Location:  40.97°N, 78.15°W
Report Text: KFIG 220054Z AUTO 03005KT 8SM CLR M06/M07 A3024 RMK AO2 SLP261 T10561072
Loading
Personal Weather Stations






























Interactive Weather Map New forecast layout! Learn more

10-Day Weather Forecast

Advertisements
Track Severe Weather on mobile